Point Comfort, Texas
Current Conditions -  °F | °C
As of 1:55 PM on Wednesday 17 Dec 2014 (Local Time) from KPKV Reporting Station
Overcast Overcast  
Wind Chill: 64°   Ceiling: 3500
Heat Index: 64°   Visibility: 10mi
Dew Point: 63°   Wind: 16mph
Humidity: 94%   Direction: 100°E
Pressure: 30.07"   Gusts: NA
Location:  28.68°N, 96.56°W
Report Text: KPKV 171955Z AUTO 10014KT 10SM SCT009 BKN035 OVC075 18/17 A3007 RMK AO2 T01800170
Loading
Personal Weather Stations






























Interactive Weather Map New forecast layout! Learn more

10-Day Weather Forecast

Advertisements
Track Severe Weather on mobile